createdAt,value
2019-01-24T00:04:53.093Z,53.1
2019-01-24T00:09:49.370Z,53.1
2019-01-24T00:14:45.770Z,53.1
2019-01-24T00:19:43.834Z,53.1
2019-01-24T00:24:40.377Z,53
2019-01-24T00:29:37.058Z,53.1
2019-01-24T00:34:33.766Z,53.2
2019-01-24T00:39:30.692Z,53.2
2019-01-24T00:44:27.556Z,53.2
2019-01-24T00:49:24.401Z,53.1
2019-01-24T00:54:21.302Z,53.1
2019-01-24T00:59:18.210Z,53.1
2019-01-24T01:04:14.803Z,53
2019-01-24T01:09:11.326Z,53.1
2019-01-24T01:14:08.008Z,53
2019-01-24T01:19:04.833Z,53
2019-01-24T01:24:01.520Z,53.1
2019-01-24T01:28:57.972Z,53
2019-01-24T01:33:54.360Z,53
2019-01-24T01:38:51.208Z,53
2019-01-24T01:43:47.828Z,52.9
2019-01-24T01:48:44.524Z,52.9
2019-01-24T01:53:41.870Z,52.9
2019-01-24T01:58:38.799Z,52.9
2019-01-24T02:03:35.419Z,52.9
2019-01-24T02:08:32.176Z,52.9
2019-01-24T02:13:28.813Z,52.9
2019-01-24T02:18:25.495Z,52.9
2019-01-24T02:23:22.258Z,52.8
2019-01-24T02:28:18.978Z,52.8
2019-01-24T02:33:15.823Z,52.9
2019-01-24T02:38:12.603Z,53
2019-01-24T02:43:09.207Z,53
2019-01-24T02:48:07.187Z,53
2019-01-24T02:53:03.656Z,52.9
2019-01-24T02:58:00.216Z,52.9
2019-01-24T03:02:56.845Z,52.9
2019-01-24T03:07:53.696Z,52.9
2019-01-24T03:12:50.366Z,52.9
2019-01-24T03:17:47.428Z,52.9
2019-01-24T03:22:44.920Z,52.9
2019-01-24T03:27:40.952Z,52.9
2019-01-24T03:32:37.562Z,52.9
2019-01-24T03:37:34.328Z,52.9
2019-01-24T03:42:30.796Z,52.9
2019-01-24T03:47:27.804Z,53
2019-01-24T03:52:24.605Z,53
2019-01-24T03:57:21.423Z,53
2019-01-24T04:02:17.782Z,53
2019-01-24T04:07:14.867Z,53
2019-01-24T04:12:11.735Z,52.9
2019-01-24T04:17:08.322Z,53
2019-01-24T04:22:05.640Z,52.9
2019-01-24T04:27:02.366Z,52.9
2019-01-24T04:31:59.187Z,52.8
2019-01-24T04:36:55.712Z,52.8
2019-01-24T04:41:52.468Z,52.8
2019-01-24T04:46:49.439Z,52.8
2019-01-24T04:51:45.520Z,52.8
2019-01-24T04:56:42.664Z,52.7
2019-01-24T05:01:39.382Z,52.7
2019-01-24T05:06:35.950Z,52.7
2019-01-24T05:11:32.732Z,52.7
2019-01-24T05:16:29.243Z,52.7
2019-01-24T05:21:26.088Z,52.7
2019-01-24T05:26:22.607Z,52.6
2019-01-24T05:31:19.364Z,52.7
2019-01-24T05:36:15.874Z,52.6
2019-01-24T05:41:12.934Z,52.6
2019-01-24T05:46:09.642Z,52.6
2019-01-24T05:51:06.452Z,52.6
2019-01-24T05:56:03.494Z,52.6
2019-01-24T06:01:00.357Z,52.6
2019-01-24T06:05:57.295Z,52.6
2019-01-24T06:10:54.114Z,52.6
2019-01-24T06:15:50.893Z,52.6
2019-01-24T06:20:47.316Z,52.6
2019-01-24T06:25:44.129Z,52.6
2019-01-24T06:30:41.230Z,52.6
2019-01-24T06:35:37.980Z,52.6
2019-01-24T06:40:35.205Z,52.6
2019-01-24T06:45:31.800Z,52.5
2019-01-24T06:50:28.619Z,52.6
2019-01-24T06:55:25.822Z,52.5
2019-01-24T07:00:22.313Z,52.6
2019-01-24T07:05:19.156Z,52.6
2019-01-24T07:10:16.067Z,52.6
2019-01-24T07:15:13.132Z,52.6
2019-01-24T07:20:10.250Z,52.6
2019-01-24T07:25:06.468Z,52.6
2019-01-24T07:30:03.350Z,52.5
2019-01-24T07:35:00.217Z,52.5
2019-01-24T07:39:57.114Z,52.6
2019-01-24T07:44:53.976Z,52.6
2019-01-24T07:49:50.770Z,52.5
2019-01-24T07:54:47.975Z,52.6
2019-01-24T07:59:44.960Z,52.6
2019-01-24T08:04:42.087Z,52.5
2019-01-24T08:09:39.011Z,52.5
2019-01-24T08:14:36.189Z,52.5
2019-01-24T08:19:32.749Z,52.4
2019-01-24T08:24:29.922Z,52.4
2019-01-24T08:29:28.211Z,52.4
2019-01-24T08:34:24.583Z,52.4
2019-01-24T08:39:21.129Z,52.3
2019-01-24T08:44:17.782Z,52.3
2019-01-24T08:49:14.830Z,52.3
2019-01-24T08:54:11.598Z,52.3
2019-01-24T08:59:08.423Z,52.3
2019-01-24T09:04:05.273Z,52.3
2019-01-24T09:09:01.941Z,52.2
2019-01-24T09:13:58.888Z,52.2
2019-01-24T09:18:55.810Z,52.1
2019-01-24T09:23:52.801Z,52.1
2019-01-24T09:28:49.688Z,52.1
2019-01-24T09:33:46.620Z,52
2019-01-24T09:38:43.038Z,52
2019-01-24T09:43:39.970Z,51.9
2019-01-24T09:48:37.645Z,51.9
2019-01-24T09:53:34.248Z,51.9
2019-01-24T09:58:31.285Z,51.8
2019-01-24T10:03:28.146Z,51.8
2019-01-24T10:08:25.342Z,51.8
2019-01-24T10:13:22.746Z,51.8
2019-01-24T10:18:22.030Z,51.8
2019-01-24T10:23:18.343Z,51.7
2019-01-24T10:28:15.177Z,51.7
2019-01-24T10:33:12.084Z,51.7
2019-01-24T10:38:08.971Z,51.7
2019-01-24T10:43:06.515Z,51.7
2019-01-24T10:48:03.161Z,51.7
2019-01-24T10:53:00.147Z,51.7
2019-01-24T10:57:58.241Z,51.7
2019-01-24T11:02:54.773Z,51.6
